createdAt,value
2017-06-21T00:00:54.356Z,56.80
2017-06-21T00:03:22.452Z,57.70
2017-06-21T00:05:50.539Z,57.70
2017-06-21T00:08:18.628Z,57.50
2017-06-21T00:10:46.735Z,57.10
2017-06-21T00:13:14.830Z,56.50
2017-06-21T00:15:43.097Z,57.60
2017-06-21T00:18:11.188Z,58.20
2017-06-21T00:20:39.439Z,58.50
2017-06-21T00:23:07.528Z,59.10
2017-06-21T00:25:35.784Z,58.10
2017-06-21T00:28:04.024Z,58.40
2017-06-21T00:30:32.120Z,58.50
2017-06-21T00:33:00.382Z,58.30
2017-06-21T00:35:28.517Z,58.70
2017-06-21T00:37:56.823Z,58.60
2017-06-21T00:40:25.191Z,58.20
2017-06-21T00:42:53.282Z,58.60
2017-06-21T00:45:21.420Z,58.10
2017-06-21T00:47:49.603Z,58.80
2017-06-21T00:50:17.881Z,58.60
2017-06-21T00:52:45.968Z,58.00
2017-06-21T00:55:14.067Z,58.10
2017-06-21T00:57:42.143Z,59.20
2017-06-21T01:00:10.238Z,58.90
2017-06-21T01:02:38.327Z,58.60
2017-06-21T01:05:06.419Z,58.70
2017-06-21T01:07:34.506Z,59.20
2017-06-21T01:10:02.620Z,58.80
2017-06-21T01:12:30.708Z,59.70
2017-06-21T01:14:58.788Z,60.50
2017-06-21T01:17:26.874Z,60.00
2017-06-21T01:19:54.963Z,59.60
2017-06-21T01:22:23.060Z,59.80
2017-06-21T01:24:51.141Z,59.90
2017-06-21T01:27:19.227Z,61.20
2017-06-21T01:29:47.315Z,59.70
2017-06-21T01:32:15.399Z,59.30
2017-06-21T01:34:43.491Z,59.70
2017-06-21T01:37:11.595Z,59.70
2017-06-21T01:39:39.687Z,59.90
2017-06-21T01:42:07.782Z,61.40
2017-06-21T01:44:35.871Z,61.50
2017-06-21T01:47:03.948Z,63.30
2017-06-21T01:49:32.464Z,63.40
2017-06-21T01:52:00.549Z,63.60
2017-06-21T01:54:28.630Z,63.90
2017-06-21T01:56:56.721Z,63.20
2017-06-21T01:59:24.811Z,62.70
2017-06-21T02:01:52.887Z,62.20
2017-06-21T02:04:20.984Z,61.90
2017-06-21T02:06:49.066Z,63.50
2017-06-21T02:09:17.144Z,64.70
2017-06-21T02:11:45.245Z,65.00
2017-06-21T02:14:13.336Z,64.00
2017-06-21T02:16:41.427Z,64.00
2017-06-21T02:19:09.527Z,63.20
2017-06-21T02:21:37.623Z,63.20
2017-06-21T02:24:05.708Z,64.20
2017-06-21T02:26:33.810Z,63.50
2017-06-21T02:29:01.896Z,64.20
2017-06-21T02:31:29.972Z,64.80
2017-06-21T02:33:58.063Z,65.50
2017-06-21T02:36:26.144Z,66.50
2017-06-21T02:38:54.235Z,66.00
2017-06-21T02:41:22.320Z,65.70
2017-06-21T02:43:50.417Z,66.00
2017-06-21T02:46:18.503Z,65.00
2017-06-21T02:48:46.597Z,65.90
2017-06-21T02:51:14.677Z,65.40
2017-06-21T02:53:42.757Z,65.20
2017-06-21T02:56:10.856Z,64.60
2017-06-21T02:58:38.959Z,63.50
2017-06-21T03:01:07.059Z,64.00
2017-06-21T03:03:35.181Z,64.50
2017-06-21T03:06:03.277Z,64.40
2017-06-21T03:08:31.363Z,64.30
2017-06-21T03:10:59.448Z,65.10
2017-06-21T03:13:27.550Z,64.80
2017-06-21T03:15:55.640Z,66.20
2017-06-21T03:18:23.746Z,65.60
2017-06-21T03:20:51.842Z,65.90
2017-06-21T03:23:19.937Z,65.90
2017-06-21T03:25:48.017Z,65.50
2017-06-21T03:28:16.119Z,66.10
2017-06-21T03:30:44.209Z,65.40
2017-06-21T03:33:12.289Z,65.20
2017-06-21T03:35:40.400Z,65.00
2017-06-21T03:38:08.491Z,65.00
2017-06-21T03:40:36.579Z,66.30
2017-06-21T03:43:04.667Z,64.80
2017-06-21T03:45:32.759Z,63.90
2017-06-21T03:48:00.844Z,63.40
2017-06-21T03:50:28.944Z,63.50
2017-06-21T03:52:57.021Z,62.80
2017-06-21T03:55:25.118Z,63.20
2017-06-21T03:57:53.209Z,63.50
2017-06-21T04:00:21.297Z,64.00
2017-06-21T04:02:49.384Z,63.90
2017-06-21T04:05:17.469Z,64.40
2017-06-21T04:07:45.559Z,63.90
2017-06-21T04:10:13.642Z,64.30
2017-06-21T04:12:41.755Z,64.40
2017-06-21T04:15:09.849Z,63.80
2017-06-21T04:17:37.932Z,63.60
2017-06-21T04:20:06.019Z,63.00
2017-06-21T04:22:34.104Z,63.00
2017-06-21T04:25:02.195Z,62.60
2017-06-21T04:27:30.283Z,62.80
2017-06-21T04:29:58.367Z,63.00
2017-06-21T04:32:26.456Z,63.30
2017-06-21T04:34:54.561Z,62.60
2017-06-21T04:37:22.640Z,62.60
2017-06-21T04:39:50.784Z,62.60
2017-06-21T04:42:18.871Z,62.20
2017-06-21T04:44:46.960Z,61.70
2017-06-21T04:47:15.051Z,61.20
2017-06-21T04:49:43.143Z,61.30
2017-06-21T04:52:11.243Z,62.00
2017-06-21T04:54:39.324Z,61.60
2017-06-21T04:57:07.431Z,60.80
2017-06-21T04:59:35.520Z,60.40
2017-06-21T05:02:03.602Z,60.00
2017-06-21T05:04:31.707Z,60.00
2017-06-21T05:06:59.797Z,60.20
2017-06-21T05:09:27.887Z,60.00
2017-06-21T05:11:55.980Z,60.10
2017-06-21T05:14:24.079Z,59.90
2017-06-21T05:16:52.165Z,59.60
2017-06-21T05:19:20.243Z,59.60
2017-06-21T05:21:48.331Z,59.10
2017-06-21T05:24:16.427Z,58.90
2017-06-21T05:26:44.525Z,58.40
2017-06-21T05:29:12.608Z,58.20
2017-06-21T05:31:40.697Z,57.30
2017-06-21T05:34:08.784Z,56.20
2017-06-21T05:36:36.883Z,56.40
2017-06-21T05:39:04.976Z,56.10
2017-06-21T05:41:33.074Z,56.30
2017-06-21T05:44:01.168Z,55.60
2017-06-21T05:46:29.255Z,56.10
2017-06-21T05:48:57.350Z,56.00
2017-06-21T05:51:25.451Z,55.60
2017-06-21T05:53:53.547Z,55.70
2017-06-21T05:56:21.649Z,55.70
2017-06-21T05:58:49.728Z,55.20
2017-06-21T06:01:17.812Z,55.00
2017-06-21T06:03:45.955Z,54.40
2017-06-21T06:06:14.045Z,53.70
2017-06-21T06:08:42.151Z,53.60
2017-06-21T06:11:10.240Z,53.60
2017-06-21T06:13:38.327Z,52.70
2017-06-21T06:16:06.418Z,53.00
2017-06-21T06:18:34.495Z,52.20
2017-06-21T06:21:02.589Z,52.40
2017-06-21T06:23:30.680Z,52.00
2017-06-21T06:25:58.778Z,50.50
2017-06-21T06:28:26.868Z,50.80
2017-06-21T06:30:54.959Z,50.10
2017-06-21T06:33:23.042Z,50.20
2017-06-21T06:35:51.153Z,49.80
2017-06-21T06:38:19.231Z,49.80
2017-06-21T06:40:47.324Z,50.40
2017-06-21T06:43:15.416Z,50.70
2017-06-21T06:45:43.501Z,50.80
2017-06-21T06:48:11.596Z,50.30
2017-06-21T06:50:39.683Z,50.90
2017-06-21T06:53:07.799Z,50.30
2017-06-21T06:55:35.884Z,50.80
2017-06-21T06:58:03.979Z,50.70
2017-06-21T07:00:32.063Z,50.20
2017-06-21T07:03:00.173Z,48.80
2017-06-21T07:05:28.246Z,48.90
2017-06-21T07:07:56.327Z,48.10
2017-06-21T07:10:24.419Z,46.60
2017-06-21T07:12:52.509Z,46.60
2017-06-21T07:15:20.591Z,45.90
2017-06-21T07:17:48.681Z,46.40
2017-06-21T07:20:16.763Z,45.80
2017-06-21T07:22:44.852Z,45.60
2017-06-21T07:25:12.947Z,44.00
2017-06-21T07:27:41.023Z,43.90
2017-06-21T07:30:09.128Z,44.10
2017-06-21T07:32:37.224Z,43.40
2017-06-21T07:35:05.311Z,43.40
2017-06-21T07:37:33.406Z,43.80
2017-06-21T07:40:01.503Z,42.70
2017-06-21T07:42:29.579Z,42.00
2017-06-21T07:44:57.678Z,41.80
2017-06-21T07:47:25.766Z,42.00
2017-06-21T07:49:53.845Z,42.30
2017-06-21T07:52:21.939Z,41.20
2017-06-21T07:54:50.027Z,41.10
2017-06-21T07:57:18.124Z,40.50
2017-06-21T07:59:46.219Z,39.60
2017-06-21T08:02:14.304Z,40.00
2017-06-21T08:04:42.395Z,39.40
2017-06-21T08:07:10.480Z,39.20
2017-06-21T08:09:38.573Z,39.00
2017-06-21T08:12:06.664Z,39.10
2017-06-21T08:14:34.771Z,39.60
2017-06-21T08:17:02.855Z,39.80
2017-06-21T08:19:30.943Z,38.70
2017-06-21T08:21:59.036Z,42.00
2017-06-21T08:24:27.125Z,41.10
2017-06-21T08:26:55.223Z,39.90
2017-06-21T08:29:23.317Z,40.20
2017-06-21T08:31:51.405Z,39.30
2017-06-21T08:34:19.491Z,39.70
2017-06-21T08:36:47.608Z,39.50
2017-06-21T08:39:15.686Z,40.50
2017-06-21T08:41:43.771Z,39.00
2017-06-21T08:44:11.911Z,38.90
2017-06-21T08:46:39.999Z,37.50
2017-06-21T08:49:08.095Z,37.10
2017-06-21T08:51:36.184Z,36.70
2017-06-21T08:54:04.297Z,36.30
2017-06-21T08:56:32.384Z,36.80
2017-06-21T08:59:00.467Z,34.90
2017-06-21T09:01:28.561Z,35.10
2017-06-21T09:03:56.644Z,33.80
2017-06-21T09:06:24.738Z,34.20
2017-06-21T09:08:52.825Z,34.30
2017-06-21T09:11:20.915Z,34.20
2017-06-21T09:13:49.000Z,34.40
2017-06-21T09:16:17.101Z,33.80
2017-06-21T09:18:45.191Z,34.20
2017-06-21T09:21:13.282Z,33.70
2017-06-21T09:23:41.375Z,33.70
2017-06-21T09:26:09.464Z,33.80
2017-06-21T09:28:37.564Z,34.80
2017-06-21T09:31:05.645Z,34.10
2017-06-21T09:33:33.730Z,33.20
2017-06-21T09:36:01.827Z,33.60
2017-06-21T09:38:29.917Z,33.10
2017-06-21T09:40:58.015Z,33.30
2017-06-21T09:43:26.095Z,32.40
2017-06-21T09:45:54.190Z,32.40
2017-06-21T09:48:22.280Z,33.00
2017-06-21T09:50:50.381Z,31.50
2017-06-21T09:53:18.460Z,31.80
2017-06-21T09:55:46.547Z,31.40
2017-06-21T09:58:14.634Z,30.20
2017-06-21T10:00:42.729Z,31.30
2017-06-21T10:03:10.824Z,29.70
2017-06-21T10:05:38.907Z,30.10
2017-06-21T10:08:07.016Z,29.90
2017-06-21T10:10:35.098Z,31.00
2017-06-21T10:13:03.174Z,30.40
2017-06-21T10:15:31.265Z,30.80
2017-06-21T10:17:59.349Z,32.40
2017-06-21T10:20:27.431Z,31.40
2017-06-21T10:22:55.513Z,30.90
2017-06-21T10:25:23.603Z,30.50
2017-06-21T10:27:51.675Z,29.80
2017-06-21T10:30:19.777Z,30.40
2017-06-21T10:32:47.857Z,30.60
2017-06-21T10:35:15.944Z,30.90
2017-06-21T10:37:44.039Z,29.90
2017-06-21T10:40:12.123Z,30.00
2017-06-21T10:42:40.211Z,30.10
2017-06-21T10:45:08.287Z,29.20
2017-06-21T10:47:36.372Z,30.00
2017-06-21T10:50:04.455Z,29.70
2017-06-21T10:52:32.561Z,28.40
2017-06-21T10:55:00.647Z,28.90
2017-06-21T10:57:28.726Z,28.70
2017-06-21T10:59:56.818Z,28.60
2017-06-21T11:02:24.892Z,28.30
2017-06-21T11:04:52.981Z,28.70
2017-06-21T11:07:21.055Z,28.20
2017-06-21T11:09:49.148Z,27.30
2017-06-21T11:12:17.221Z,28.70
2017-06-21T11:14:45.316Z,28.20
2017-06-21T11:17:13.383Z,27.60
2017-06-21T11:19:41.479Z,27.20
2017-06-21T11:22:09.722Z,26.90
2017-06-21T11:24:37.795Z,26.50
2017-06-21T11:27:06.700Z,27.20
2017-06-21T11:29:34.792Z,28.40
2017-06-21T11:32:02.879Z,28.10
2017-06-21T11:34:30.959Z,28.00
2017-06-21T11:36:59.044Z,29.10
2017-06-21T11:39:27.141Z,29.00
2017-06-21T11:41:55.247Z,28.70
2017-06-21T11:44:23.342Z,28.80
2017-06-21T11:46:51.429Z,29.60
2017-06-21T11:49:19.517Z,30.40
2017-06-21T11:51:47.599Z,28.20
2017-06-21T11:54:15.683Z,28.00
2017-06-21T11:56:43.771Z,27.30
2017-06-21T11:59:11.875Z,27.00
2017-06-21T12:01:39.953Z,26.70
2017-06-21T12:04:08.039Z,26.30
2017-06-21T12:06:36.123Z,25.70
2017-06-21T12:09:04.203Z,26.00
2017-06-21T12:11:32.289Z,27.20
2017-06-21T12:14:00.367Z,28.20
2017-06-21T12:16:28.453Z,26.70
2017-06-21T12:18:56.535Z,27.00
2017-06-21T12:21:24.636Z,27.40
2017-06-21T12:23:52.722Z,27.10
2017-06-21T12:26:20.808Z,26.50
2017-06-21T12:28:48.895Z,28.00
2017-06-21T12:31:16.987Z,26.70
2017-06-21T12:33:45.068Z,25.40
2017-06-21T12:36:13.139Z,26.20
2017-06-21T12:38:41.218Z,26.10
2017-06-21T12:41:09.313Z,25.70
2017-06-21T12:43:37.398Z,25.90
2017-06-21T12:46:05.484Z,24.60
2017-06-21T12:48:33.550Z,25.60
2017-06-21T12:51:01.630Z,24.90
2017-06-21T12:53:29.719Z,25.00
2017-06-21T12:55:57.813Z,24.50
2017-06-21T12:58:25.888Z,24.10
2017-06-21T13:00:53.990Z,24.50
2017-06-21T13:03:22.061Z,25.80
2017-06-21T13:05:50.160Z,24.90
2017-06-21T13:08:18.244Z,24.60
2017-06-21T13:10:46.319Z,24.00
2017-06-21T13:13:14.407Z,24.20
2017-06-21T13:15:42.479Z,25.30
2017-06-21T13:18:10.685Z,25.20
2017-06-21T13:20:38.948Z,24.60
2017-06-21T13:23:07.223Z,25.80
2017-06-21T13:25:35.303Z,25.60
2017-06-21T13:28:03.406Z,25.70
2017-06-21T13:30:31.490Z,24.80
2017-06-21T13:33:00.335Z,25.30
2017-06-21T13:35:28.431Z,25.60
2017-06-21T13:37:56.511Z,26.00
2017-06-21T13:40:24.613Z,26.60
2017-06-21T13:42:52.706Z,26.20
2017-06-21T13:45:20.793Z,25.30
2017-06-21T13:47:48.868Z,25.50
2017-06-21T13:50:16.971Z,25.70
2017-06-21T13:52:45.061Z,26.40
2017-06-21T13:55:13.137Z,26.20
2017-06-21T13:57:41.227Z,27.40
2017-06-21T14:00:09.316Z,29.20
2017-06-21T14:02:37.390Z,29.30
2017-06-21T14:05:05.480Z,29.10
2017-06-21T14:07:33.567Z,28.80
2017-06-21T14:10:01.651Z,28.90
2017-06-21T14:12:29.746Z,29.10
2017-06-21T14:14:57.847Z,29.10
2017-06-21T14:17:25.932Z,28.70
2017-06-21T14:19:54.020Z,29.50
2017-06-21T14:22:22.112Z,29.30
2017-06-21T14:24:50.203Z,29.90
2017-06-21T14:27:18.283Z,29.90
2017-06-21T14:29:46.382Z,29.30
2017-06-21T14:32:14.469Z,29.40
2017-06-21T14:34:42.555Z,29.80
2017-06-21T14:37:10.648Z,29.60
2017-06-21T14:39:38.727Z,31.30
2017-06-21T14:42:06.834Z,31.70
2017-06-21T14:44:34.921Z,30.30
2017-06-21T14:47:03.027Z,30.00
2017-06-21T14:49:31.108Z,29.20
2017-06-21T14:51:59.224Z,29.90
2017-06-21T14:54:27.324Z,30.00
2017-06-21T14:56:55.411Z,30.40
2017-06-21T14:59:23.502Z,30.20
2017-06-21T15:01:51.598Z,30.00
2017-06-21T15:04:19.674Z,29.50
2017-06-21T15:06:47.760Z,29.90
2017-06-21T15:09:15.860Z,29.70
2017-06-21T15:11:43.943Z,30.60
2017-06-21T15:14:12.028Z,30.10
2017-06-21T15:16:40.123Z,30.30
2017-06-21T15:19:08.198Z,30.20
2017-06-21T15:21:36.296Z,30.10
2017-06-21T15:24:04.379Z,30.70
2017-06-21T15:26:32.467Z,31.20
2017-06-21T15:29:00.547Z,30.00
2017-06-21T15:31:28.636Z,29.70
2017-06-21T15:33:56.713Z,30.00
2017-06-21T15:36:24.813Z,30.30
2017-06-21T15:38:52.904Z,30.40
2017-06-21T15:41:20.992Z,31.20
2017-06-21T15:43:49.115Z,30.80
2017-06-21T15:46:17.176Z,30.60
2017-06-21T15:48:45.269Z,30.70
2017-06-21T15:51:13.352Z,30.40
2017-06-21T15:53:41.449Z,31.30
2017-06-21T15:56:09.534Z,31.10
2017-06-21T15:58:37.636Z,31.60
2017-06-21T16:01:05.727Z,31.60
2017-06-21T16:03:33.832Z,31.70
2017-06-21T16:06:01.914Z,31.30
2017-06-21T16:08:29.995Z,31.60
2017-06-21T16:10:58.089Z,31.60
2017-06-21T16:13:26.187Z,31.70
2017-06-21T16:15:54.291Z,32.00
2017-06-21T16:18:22.428Z,31.60
2017-06-21T16:20:50.507Z,32.50
2017-06-21T16:23:18.588Z,32.90
2017-06-21T16:25:46.665Z,32.80
2017-06-21T16:28:14.761Z,33.10
2017-06-21T16:30:42.844Z,32.80
2017-06-21T16:33:10.952Z,32.60
2017-06-21T16:35:39.052Z,32.70
2017-06-21T16:38:07.147Z,32.30
2017-06-21T16:40:35.231Z,32.30
2017-06-21T16:43:03.334Z,32.50
2017-06-21T16:45:31.420Z,33.00
2017-06-21T16:47:59.511Z,33.10
2017-06-21T16:50:27.623Z,33.50
2017-06-21T16:52:55.715Z,33.70
2017-06-21T16:55:23.823Z,34.10
2017-06-21T16:57:51.911Z,33.80
2017-06-21T17:00:20.006Z,34.00
2017-06-21T17:02:48.101Z,34.00
2017-06-21T17:05:16.216Z,34.90
2017-06-21T17:07:44.312Z,34.20
2017-06-21T17:10:12.413Z,34.90
2017-06-21T17:12:40.519Z,34.80
2017-06-21T17:15:08.639Z,34.90
2017-06-21T17:17:36.731Z,35.10
2017-06-21T17:20:04.820Z,34.50
2017-06-21T17:22:32.932Z,35.10
2017-06-21T17:25:01.024Z,35.60
2017-06-21T17:27:29.123Z,35.80
2017-06-21T17:29:57.238Z,35.10
2017-06-21T17:32:25.335Z,35.30
2017-06-21T17:34:53.435Z,36.00
2017-06-21T17:37:21.527Z,35.70
2017-06-21T17:39:49.637Z,35.80
2017-06-21T17:42:17.724Z,36.10
2017-06-21T17:44:45.819Z,35.90
2017-06-21T17:47:13.910Z,36.30
2017-06-21T17:49:41.992Z,36.40
2017-06-21T17:52:10.084Z,36.80
2017-06-21T17:54:38.199Z,37.00
2017-06-21T17:57:06.298Z,37.10
2017-06-21T17:59:34.373Z,37.50
2017-06-21T18:02:02.499Z,37.70
2017-06-21T18:04:30.588Z,38.10
2017-06-21T18:06:58.681Z,38.10
2017-06-21T18:09:26.771Z,37.90
2017-06-21T18:11:54.858Z,38.00
2017-06-21T18:14:22.942Z,38.40
2017-06-21T18:16:51.027Z,38.20
2017-06-21T18:19:19.231Z,38.20
2017-06-21T18:21:47.381Z,38.50
2017-06-21T18:24:15.572Z,39.00
2017-06-21T18:26:43.673Z,39.20
2017-06-21T18:29:11.758Z,39.50
2017-06-21T18:31:39.859Z,39.50
2017-06-21T18:34:07.946Z,39.40
2017-06-21T18:36:36.056Z,39.80
2017-06-21T18:39:04.171Z,40.00
2017-06-21T18:41:32.262Z,40.10
2017-06-21T18:44:00.349Z,40.30
2017-06-21T18:46:28.435Z,40.70
2017-06-21T18:48:56.572Z,40.60
2017-06-21T18:51:24.963Z,40.90
2017-06-21T18:53:53.078Z,40.70
2017-06-21T18:56:21.173Z,41.10
2017-06-21T18:58:49.373Z,40.90
2017-06-21T19:01:17.651Z,41.30
2017-06-21T19:03:45.920Z,41.20
2017-06-21T19:06:14.023Z,42.70
2017-06-21T19:08:42.108Z,44.20
2017-06-21T19:11:10.224Z,45.70
2017-06-21T19:13:38.329Z,46.20
2017-06-21T19:16:07.189Z,47.20
2017-06-21T19:18:35.380Z,47.10
2017-06-21T19:21:03.523Z,48.30
2017-06-21T19:23:31.621Z,49.20
2017-06-21T19:26:00.598Z,49.00
2017-06-21T19:28:28.695Z,49.00
2017-06-21T19:30:56.797Z,48.90
2017-06-21T19:33:24.897Z,49.20
2017-06-21T19:35:53.080Z,49.30
2017-06-21T19:38:21.356Z,49.30
2017-06-21T19:40:49.632Z,48.80
2017-06-21T19:43:17.715Z,50.20
2017-06-21T19:45:45.814Z,51.10
2017-06-21T19:48:13.912Z,50.80
2017-06-21T19:50:42.006Z,51.60
2017-06-21T19:53:10.189Z,51.20
2017-06-21T19:55:38.463Z,51.20
2017-06-21T19:58:06.612Z,51.10
2017-06-21T20:00:34.805Z,51.40
2017-06-21T20:03:02.944Z,51.70
2017-06-21T20:05:31.037Z,51.90
2017-06-21T20:07:59.121Z,52.00
2017-06-21T20:10:27.207Z,52.20
2017-06-21T20:12:55.297Z,52.00
2017-06-21T20:15:23.411Z,51.50
2017-06-21T20:17:51.503Z,52.00
2017-06-21T20:20:19.602Z,52.00
2017-06-21T20:22:47.693Z,52.20
2017-06-21T20:25:15.798Z,51.60
2017-06-21T20:27:43.899Z,52.10
2017-06-21T20:30:12.877Z,53.10
2017-06-21T20:32:41.071Z,53.00
2017-06-21T20:35:09.224Z,52.60
2017-06-21T20:37:37.501Z,53.10
2017-06-21T20:40:05.583Z,53.50
2017-06-21T20:42:33.697Z,53.30
2017-06-21T20:45:01.787Z,52.90
2017-06-21T20:47:29.888Z,53.20
2017-06-21T20:49:57.984Z,53.20
2017-06-21T20:52:26.085Z,53.00
2017-06-21T20:54:54.181Z,53.10
2017-06-21T20:57:22.263Z,52.40
2017-06-21T20:59:50.372Z,53.60
2017-06-21T21:02:18.468Z,53.30
2017-06-21T21:04:47.359Z,53.50
2017-06-21T21:07:15.447Z,53.80
2017-06-21T21:09:43.539Z,54.00
2017-06-21T21:12:11.636Z,54.20
2017-06-21T21:14:39.720Z,54.40
2017-06-21T21:17:07.813Z,54.70
2017-06-21T21:19:35.904Z,54.80
2017-06-21T21:22:03.987Z,55.70
2017-06-21T21:24:32.087Z,55.40
2017-06-21T21:27:00.181Z,55.40
2017-06-21T21:29:28.273Z,54.80
2017-06-21T21:31:56.373Z,55.40
2017-06-21T21:34:24.479Z,55.10
2017-06-21T21:36:52.571Z,55.20
2017-06-21T21:39:20.667Z,55.20
2017-06-21T21:41:48.772Z,55.70
2017-06-21T21:44:16.863Z,55.80
2017-06-21T21:46:44.957Z,55.80
2017-06-21T21:49:13.049Z,56.10
2017-06-21T21:51:41.159Z,55.60
2017-06-21T21:54:09.240Z,56.10
2017-06-21T21:56:37.331Z,55.70
2017-06-21T21:59:05.427Z,55.50
2017-06-21T22:01:33.519Z,55.50
2017-06-21T22:04:01.609Z,55.70
2017-06-21T22:06:29.699Z,55.40
2017-06-21T22:08:57.805Z,55.10
2017-06-21T22:11:25.886Z,55.60
2017-06-21T22:13:53.967Z,54.80
2017-06-21T22:16:22.067Z,54.90
2017-06-21T22:18:50.147Z,55.90
2017-06-21T22:21:18.253Z,56.80
2017-06-21T22:23:46.329Z,55.70
2017-06-21T22:26:14.435Z,57.40
2017-06-21T22:28:42.520Z,56.80
2017-06-21T22:31:10.619Z,56.90
2017-06-21T22:33:38.716Z,56.80
2017-06-21T22:36:06.815Z,56.70
2017-06-21T22:38:34.904Z,56.50
2017-06-21T22:41:02.993Z,57.00
2017-06-21T22:43:31.097Z,57.20
2017-06-21T22:45:59.184Z,57.20
2017-06-21T22:48:27.272Z,57.10
2017-06-21T22:50:55.368Z,57.00
2017-06-21T22:53:23.456Z,57.00
2017-06-21T22:55:51.544Z,57.90
2017-06-21T22:58:19.646Z,57.90
2017-06-21T23:00:47.751Z,57.70
2017-06-21T23:03:15.838Z,57.50
2017-06-21T23:05:43.927Z,57.80
2017-06-21T23:08:12.024Z,58.40
2017-06-21T23:10:40.116Z,58.40
2017-06-21T23:13:08.211Z,58.30
2017-06-21T23:15:36.300Z,58.30
2017-06-21T23:18:05.197Z,57.70
2017-06-21T23:20:33.287Z,58.40
2017-06-21T23:23:01.373Z,58.40
2017-06-21T23:25:29.483Z,58.20
2017-06-21T23:27:57.567Z,58.10
2017-06-21T23:30:25.660Z,58.80
2017-06-21T23:32:53.772Z,58.30
2017-06-21T23:35:21.872Z,58.40
2017-06-21T23:37:49.954Z,58.70
2017-06-21T23:40:18.040Z,58.60
2017-06-21T23:42:46.140Z,58.90
2017-06-21T23:45:14.287Z,59.10
2017-06-21T23:47:42.376Z,59.40
2017-06-21T23:50:10.472Z,59.40
2017-06-21T23:52:38.593Z,59.60
2017-06-21T23:55:06.692Z,59.80
2017-06-21T23:57:34.775Z,59.90
